This is the latest recevied weather packets stored in our database for station/object W8KVG. If no packets are shown the sender has not sent any weather packets the latest 10 day(s).
| Time | Temp. | Humidity | Pressure | Rain* | Wind** | Luminosity | Snow |
|---|---|---|---|---|---|---|---|
| 1778083496 | 10.56° C | 94% | 1009.1 hPa | 0 mm | - | 59 W/m² | - |
| 1778083193 | 10.56° C | 96% | 1009 hPa | 0 mm | - | 151 W/m² | - |
| 1778082891 | 10° C | 97% | 1009.2 hPa | 0 mm | - | 164 W/m² | - |
| 1778081783 | 10° C | 99% | 1008.5 hPa | 0 mm | - | 267 W/m² | - |
| 1778081480 | 8.89° C | 99% | 1008.7 hPa | 0 mm | - | 98 W/m² | - |
| 1778081177 | 9.44° C | 99% | 1008.7 hPa | 0 mm | - | 80 W/m² | - |
| 1778080875 | 9.44° C | 99% | 1008.6 hPa | 0 mm | - | 83 W/m² | - |
| 1778080573 | 9.44° C | 99% | 1008.5 hPa | 0 mm | - | 81 W/m² | - |
| 1778080270 | 9.44° C | 99% | 1008.4 hPa | 0 mm | - | 49 W/m² | - |
| 1778079967 | 9.44° C | 99% | 1008.3 hPa | 0 mm | - | 74 W/m² | - |
| 1778079663 | 9.44° C | 99% | 1008.1 hPa | 0 mm | - | 73 W/m² | - |
| 1778079360 | 9.44° C | 99% | 1008 hPa | 0 mm | - | 127 W/m² | - |
| 1778079058 | 9.44° C | 99% | 1008.1 hPa | 0 mm | - | 77 W/m² | - |
| 1778078754 | 9.44° C | 99% | 1008 hPa | 0 mm | - | 99 W/m² | - |
| 1778078451 | 9.44° C | 99% | 1008 hPa | 0 mm | - | 91 W/m² | - |
| 1778078149 | 9.44° C | 99% | 1007.8 hPa | 0 mm | - | 181 W/m² | - |
| 1778077847 | 9.44° C | 99% | 1007.8 hPa | 0 mm | - | 155 W/m² | - |
| 1778077545 | 8.89° C | 99% | 1007.7 hPa | 0 mm | - | 87 W/m² | - |
| 1778077243 | 8.89° C | 99% | 1007.8 hPa | 0 mm | - | 88 W/m² | - |
| 1778076940 | 8.89° C | 99% | 1007.7 hPa | 0 mm | - | 72 W/m² | - |
| 1778076638 | 8.89° C | 99% | 1007.5 hPa | 0 mm | - | 79 W/m² | - |
| 1778076335 | 8.89° C | 99% | 1007.5 hPa | 0 mm | - | 72 W/m² | - |
| 1778076032 | 8.89° C | 99% | 1007.4 hPa | 0.51 mm | - | 79 W/m² | - |
| 1778075729 | 8.89° C | 99% | 1007.4 hPa | 0.51 mm | - | 84 W/m² | - |
| 1778075425 | 8.89° C | 99% | 1007.5 hPa | 0 mm | - | 85 W/m² | - |
* Rain latest hour (hover to see other rain measurements)
** Current wind speed in m/s (hover to see current wind gust speed)